Latest Coastal Weather Observations for Broome

IDW60701

Issued at 4:15 pm WST Wednesday 1 October 2014 (issued every 10 minutes, with the page automatically refreshed every 10 minutes)

About coastal observations | Map of coastal stations | Coastal observations for WA | Marine services | Other Formats
Station Details ID: 003003 Name: BROOME AIRPORT Lat: -17.95 Lon: 122.24 Height: 7.42 m
Data from the previous 72 hours. | See also: Recent months at Broome
Date/Time
WST
Temp

°C
Wind Pressure Rain
since 9am
mm
Weather Cloud Vis
km
Sea
Height
m
Swell
Dir
 
Speed
knots
Gust
knots
hPa Trend Height
m
Period
s
Dir
01/04:00pm 28.2 NW 14 22 1009.8 - 0.0 - - 10 - - - -
01/03:30pm 28.2 NW 16 23 1009.6 - 0.0 - - 10 - - - -
01/03:00pm 29.0 NW 17 24 1009.7 R 0.0 Haze Mostly clear 20 - - - -
01/02:30pm 29.0 NW 17 25 1010.0 - 0.0 - - 10 - - - -
01/02:00pm 28.9 NW 19 29 1010.2 - 0.0 - - 10 - - - -
01/01:30pm 28.7 NW 17 27 1010.3 - 0.0 - - 10 - - - -
01/01:27pm 29.3 NW 17 27 1010.3 - 0.0 - - 10 - - - -
01/01:00pm 29.0 NW 17 26 1010.5 - 0.0 - - 10 - - - -
01/12:30pm 29.4 NNW 19 26 1010.7 - 0.0 - - 10 - - - -
01/12:00pm 30.0 NNW 17 24 1011.0 R 0.0 Haze Clear 30 - - - -
01/11:30am 30.0 NNW 16 23 1011.5 - 0.0 - - 10 - - - -
01/11:00am 30.7 NW 15 20 1011.8 - 0.0 - - 10 - - - -
01/10:30am 30.8 NW 15 21 1011.9 - 0.0 - - 10 - - - -
01/10:00am 30.0 NNW 13 18 1012.2 - 0.0 - - 10 - - - -
01/09:30am 30.5 NNW 11 16 1012.3 - 0.0 - - 10 - - - -
01/09:00am 29.2 NNW 11 16 1012.2 R 0.0 Haze Clear 30 - - - -
01/08:30am 28.5 NNW 11 15 1012.2 - - - - 10 - - - -
01/08:00am 27.9 NW 11 16 1012.0 - - - - 10 - - - -
01/07:30am 27.8 NNW 10 15 1011.7 - - - - 10 - - - -
01/07:00am 26.4 NNE 5 9 1011.3 - 0.0 - - 10 - - - -
01/06:30am 26.0 NW 8 12 1010.9 - 0.0 - - 10 - - - -
01/06:00am 24.8 NW 6 8 1010.7 F 0.0 Haze Clear 15 - - - -
01/05:30am 24.1 NNW 5 7 1010.6 - 0.0 - - 10 - - - -
01/05:00am 24.8 NW 8 11 1010.1 - 0.0 - - 10 - - - -
01/04:30am 25.0 NW 8 11 1009.8 - 0.0 - - 10 - - - -
01/04:00am 24.6 WNW 8 10 1009.6 - 0.0 - - 10 - - - -
01/03:30am 24.5 W 7 9 1009.6 - 0.0 - - 10 - - - -
01/03:00am 24.5 WNW 5 7 1009.9 - 0.0 - - 10 - - - -
01/02:30am 24.5 NW 5 9 1010.0 - 0.0 - - 10 - - - -
01/02:00am 24.4 NNW 4 7 1010.3 - 0.0 - - 10 - - - -
01/01:30am 24.5 WNW 5 7 1010.3 - 0.0 - - 10 - - - -
01/01:00am 23.8 NNW 5 6 1010.7 - 0.0 - - 10 - - - -
01/12:30am 24.0 NNW 6 8 1010.8 - 0.0 - - 10 - - - -
01/12:00am 23.3 NW 4 5 1010.9 - 0.0 - - 10 - - - -
 
Date/Time
WST
Temp

°C
Wind Pressure Rain
since 9am
mm
Weather Cloud Vis
km
Sea
Height
m
Swell
Dir
 
Speed
knots
Gust
knots
hPa Trend Height
m
Period
s
Dir
30/11:30pm 23.7 NNW 6 8 1011.3 - 0.0 - - 10 - - - -
30/11:00pm 24.3 NNW 8 10 1011.5 - 0.0 - - 10 - - - -
30/10:30pm 24.1 NNW 6 8 1011.6 - 0.0 - - 10 - - - -
30/10:00pm 24.5 NNW 6 9 1011.9 - 0.0 - - 10 - - - -
30/09:30pm 24.8 N 5 7 1011.9 - 0.0 - - 10 - - - -
30/09:00pm 25.4 NNW 5 7 1011.6 - 0.0 - - 10 - - - -
30/08:30pm 26.7 WNW 6 9 1011.2 - 0.0 - - 10 - - - -
30/08:00pm 27.4 WNW 5 8 1011.0 - 0.0 - - 10 - - - -
30/07:30pm 27.1 NNW 7 10 1010.6 - 0.0 - - 10 - - - -
30/07:00pm 27.0 NNW 7 10 1010.2 - 0.0 - - 10 - - - -
30/06:30pm 26.8 WNW 8 10 1009.2 - 0.0 - - 10 - - - -
30/06:00pm 28.0 WSW 9 14 1008.3 - 0.0 - - 10 - - - -
30/05:30pm 29.0 W 10 16 1008.0 - 0.0 - - 10 - - - -
30/05:00pm 30.0 WSW 13 18 1007.7 - 0.0 - - 10 - - - -
30/04:30pm 30.7 WSW 13 17 1007.4 - 0.0 - - 10 - - - -
30/04:00pm 30.9 WSW 14 18 1007.4 - 0.0 - - 10 - - - -
30/03:30pm 31.6 W 14 19 1007.5 - 0.0 - - 10 - - - -
30/03:00pm 32.2 WSW 14 20 1007.4 F 0.0 Haze Clear 30 - - - -
30/02:30pm 32.0 WSW 13 18 1007.7 - 0.0 - - 10 - - - -
30/02:00pm 32.3 WSW 13 17 1008.0 - 0.0 - - 10 - - - -
30/01:30pm 31.8 WSW 12 16 1008.2 - 0.0 - - 10 - - - -
30/01:00pm 32.4 WSW 11 16 1008.6 - 0.0 - - 10 - - - -
30/12:30pm 31.5 WSW 11 15 1009.3 - 0.0 - - 10 - - - -
30/12:00pm 31.8 W 10 14 1009.8 F 0.0 Haze Clear 30 - - - -
30/11:30am 30.6 W 9 13 1010.5 - 0.0 - - 10 - - - -
30/11:00am 31.0 W 8 11 1011.0 - 0.0 - - 10 - - - -
30/10:30am 32.0 W 8 10 1011.5 - 0.0 - - 10 - - - -
30/10:00am 31.8 W 7 10 1011.7 - 0.0 - - 10 - - - -
30/09:30am 31.9 SW 7 9 1012.1 - 0.0 - - 10 - - - -
30/09:00am 30.2 SSW 7 11 1012.4 F 0.0 Haze Mostly clear 30 - - - -
30/08:30am 29.1 S 8 12 1012.7 - 0.0 - - 10 - - - -
30/08:00am 28.7 SSW 8 12 1012.4 - 0.0 - - 10 - - - -
30/07:30am 27.7 SW 9 12 1012.2 - 0.0 - - 10 - - - -
30/07:00am 26.8 SSW 7 9 1011.9 - 0.0 - - 10 - - - -
30/06:30am 25.4 SSW 6 9 1011.8 - 0.0 - - 10 - - - -
30/06:00am 23.3 SW 4 5 1011.3 F 0.0 Haze Mostly clear 25 - - - -
30/05:30am 22.4 SW 3 4 1011.3 - 0.0 - - 10 - - - -
30/05:00am 23.8 SSW 4 5 1011.2 - 0.0 - - 10 - - - -
30/04:30am 24.2 SSW 6 8 1010.7 - 0.0 - - 10 - - - -
30/04:00am 24.3 SW 7 9 1010.4 - 0.0 - - 10 - - - -
30/03:30am 24.8 SW 8 11 1010.5 - 0.0 - - 10 - - - -
30/03:00am 24.7 SW 8 11 1010.2 - 0.0 - - 10 - - - -
30/02:30am 24.2 SW 1 6 1010.4 - 0.0 - - 10 - - - -
30/02:00am 24.6 WSW 5 7 1010.2 - 0.0 - - 10 - - - -
30/01:30am 24.5 WSW 5 8 1010.4 - 0.0 - - 10 - - - -
30/01:00am 23.5 NW 2 5 1010.6 - 0.0 - - 10 - - - -
30/12:30am 24.4 W 5 7 1010.7 - 0.0 - - 10 - - - -
30/12:00am 24.6 WSW 5 7 1010.8 - 0.0 - - 10 - - - -
 
Date/Time
WST
Temp

°C
Wind Pressure Rain
since 9am
mm
Weather Cloud Vis
km
Sea
Height
m
Swell
Dir
 
Speed
knots
Gust
knots
hPa Trend Height
m
Period
s
Dir
29/11:30pm 24.9 WSW 6 8 1011.2 - 0.0 - - 10 - - - -
29/11:00pm 24.4 WSW 3 6 1011.3 - 0.0 - - 10 - - - -
29/10:30pm 24.2 WNW 5 6 1011.5 - 0.0 - - 10 - - - -
29/10:00pm 25.3 WSW 6 11 1011.6 - 0.0 - - 10 - - - -
29/09:30pm 24.9 NNW 4 6 1011.7 - 0.0 - - 10 - - - -
29/09:00pm 25.8 WSW 6 8 1011.3 - 0.0 - - 10 - - - -
29/08:30pm 25.7 W 4 6 1011.3 - 0.0 - - 10 - - - -
29/08:00pm 26.4 SW 8 11 1010.9 - 0.0 - - 10 - - - -
29/07:30pm 26.7 SW 13 17 1010.3 - 0.0 - - 10 - - - -
29/07:00pm 26.9 SW 13 17 1009.9 - 0.0 - - 10 - - - -
29/06:30pm 27.1 WSW 13 18 1009.5 - 0.0 - - 10 - - - -
29/06:00pm 27.7 WSW 13 19 1009.0 - 0.0 - - 10 - - - -
29/05:30pm 28.8 WSW 13 18 1008.8 - 0.0 - - 10 - - - -
29/05:00pm 29.6 WSW 12 17 1008.6 - 0.0 - - 10 - - - -
29/04:30pm 30.8 WSW 13 18 1008.3 - 0.0 - - 10 - - - -
29/04:00pm 31.5 WSW 13 19 1008.4 - 0.0 - - 10 - - - -
29/03:30pm 34.0 WSW 14 19 1008.3 - 0.0 - - 10 - - - -
29/03:00pm 32.7 WSW 13 18 1008.3 F 0.0 Haze Clear 35 - - - -
29/02:30pm 32.5 W 13 18 1008.5 - 0.0 - - 10 - - - -
29/02:00pm 31.9 W 13 17 1008.7 - 0.0 - - 10 - - - -
29/01:30pm 31.7 W 11 14 1009.0 - 0.0 - - 10 - - - -
29/01:00pm 31.7 W 11 14 1009.4 - 0.0 - - 10 - - - -
29/12:30pm 31.6 W 10 13 1009.9 - 0.0 - - 10 - - - -
29/12:00pm 32.3 W 10 12 1010.4 F 0.0 Haze Clear 35 - - - -
29/11:30am 32.1 W 9 12 1011.1 - 0.0 - - 10 - - - -
29/11:00am 31.5 W 10 12 1011.7 - 0.0 - - 10 - - - -
29/10:30am 32.5 SW 4 7 1012.2 - 0.0 - - 10 - - - -
29/10:00am 30.9 SSW 5 7 1012.6 - 0.0 - - 10 - - - -
29/09:30am 30.0 SSW 8 11 1012.7 - 0.0 - - 10 - - - -
29/09:05am - - - - - - - - - - - - - -
29/09:00am 29.9 SSW 7 10 1012.7 F 0.0 Haze Clear 30 - - - -
29/08:30am 29.2 SSW 8 11 1012.6 - 0.0 - - 10 - - - -
29/08:00am 28.0 SW 11 15 1012.3 - 0.0 - - 10 - - - -
29/07:30am 27.6 SW 10 14 1012.1 - 0.0 - - 10 - - - -
29/07:00am 26.3 SW 8 11 1011.9 - 0.0 - - 10 - - - -
29/06:30am 24.3 SW 5 6 1011.7 - 0.0 - - 10 - - - -
29/06:00am 21.8 NNW 4 6 1011.5 F 0.0 Haze Clear 20 - - - -
29/05:30am 22.6 ESE 5 7 1011.6 - 0.0 - - 10 - - - -
29/05:00am 23.1 W 6 8 1010.8 - 0.0 - - 10 - - - -
29/04:30am 22.7 SW 6 7 1010.7 - 0.0 - - 10 - - - -
29/04:00am 22.8 W 4 6 1010.6 - 0.0 - - 10 - - - -
29/03:30am 22.4 WSW 5 6 1010.4 - 0.0 - - 10 - - - -
29/03:00am 22.2 CALM 0 0 1010.3 - 0.0 - - 10 - - - -
29/02:30am 22.1 N 3 5 1010.5 - 0.0 - - 10 - - - -
29/02:00am 23.2 WNW 5 6 1010.6 - 0.0 - - 10 - - - -
29/01:30am 23.2 WNW 5 6 1010.8 - 0.0 - - 10 - - - -
29/01:00am 23.3 NNW 4 6 1010.9 - 0.0 - - 10 - - - -
29/12:30am 23.2 WNW 6 7 1011.0 - 0.0 - - 10 - - - -
29/12:00am 22.0 NNW 4 6 1011.2 - 0.0 - - 10 - - - -
 
Date/Time
WST
Temp

°C
Wind Pressure Rain
since 9am
mm
Weather Cloud Vis
km
Sea
Height
m
Swell
Dir
 
Speed
knots
Gust
knots
hPa Trend Height
m
Period
s
Dir
28/11:30pm 23.7 NW 6 7 1011.7 - 0.0 - - 10 - - - -
28/11:00pm 23.7 WNW 5 8 1011.9 - 0.0 - - 10 - - - -
28/10:30pm 23.1 NW 3 5 1012.1 - 0.0 - - 10 - - - -
28/10:00pm 22.5 N 4 6 1012.4 - 0.0 - - 10 - - - -
28/09:30pm 23.5 N 5 6 1012.3 - 0.0 - - 10 - - - -
28/09:00pm 24.1 N 5 7 1012.1 - 0.0 - - 10 - - - -
28/08:30pm 24.2 NNW 5 6 1011.9 - 0.0 - - 10 - - - -
28/08:00pm 25.3 WNW 5 6 1011.5 - 0.0 - - 10 - - - -
28/07:30pm 26.0 W 8 12 1011.0 - 0.0 - - 10 - - - -
28/07:00pm 26.3 W 9 12 1010.6 - 0.0 - - 10 - - - -
28/06:30pm 26.6 WSW 10 14 1010.1 - 0.0 - - 10 - - - -
28/06:00pm 26.6 WSW 10 15 1009.8 - 0.0 - - 10 - - - -
28/05:30pm 27.1 WSW 11 15 1009.7 - 0.0 - - 10 - - - -
28/05:00pm 28.2 W 11 15 1009.6 - 0.0 - - 10 - - - -
28/04:30pm 29.1 W 11 15 1009.5 - 0.0 - - 10 - - - -

Other Formats:

Comma delimited format used in spreadsheet applications
http://www.bom.gov.au/fwo/IDW60701/IDW60701.94203.axf

JavaScript Object Notation format (JSON) in row-major order
http://www.bom.gov.au/fwo/IDW60701/IDW60701.94203.json